Time;durP1;ratioP1;P1;durP2;ratioP2;P2;SDS_P1;SDS_P2;PMS_P1;PMS_P2;Temp;Humidity;BMP_temperature;BMP_pressure;BME280_temperature;BME280_humidity;BME280_pressure;Samples;Min_cycle;Max_cycle;Signal;HPM_P1;HPM_P2
2021/07/11 00:01:00;;;;;;;14.10;9.63;;;;;;;20.63;72.91;100311.92;1778346;78;21883;-81
2021/07/11 00:03:26;;;;;;;10.65;9.55;;;;;;;20.58;73.02;100311.16;1793533;80;20963;-81
2021/07/11 00:05:53;;;;;;;12.50;9.63;;;;;;;20.53;73.15;100304.17;1793498;80;20988;-82
2021/07/11 00:08:20;;;;;;;12.47;9.63;;;;;;;20.51;73.26;100307.56;1790264;79;21542;-82
2021/07/11 00:10:48;;;;;;;10.53;9.43;;;;;;;20.49;73.35;100305.06;1767296;79;20915;-82
2021/07/11 00:13:14;;;;;;;9.98;8.93;;;;;;;20.50;73.49;100304.55;1762096;81;22476;-80
2021/07/11 00:15:43;;;;;;;10.88;9.78;;;;;;;20.48;73.68;100303.41;1771511;80;20972;-84
2021/07/11 00:18:11;;;;;;;11.15;9.60;;;;;;;20.44;73.82;100300.76;1793138;80;20968;-84
2021/07/11 00:20:38;;;;;;;12.35;9.25;;;;;;;20.44;73.86;100303.44;1771984;80;21358;-84
2021/07/11 00:23:05;;;;;;;11.60;9.50;;;;;;;20.43;73.94;100300.44;1762333;81;21014;-83
2021/07/11 00:25:31;;;;;;;12.43;10.20;;;;;;;20.42;73.97;100300.59;1762118;80;21496;-83
2021/07/11 00:27:59;;;;;;;12.18;9.40;;;;;;;20.38;74.04;100302.84;1782826;79;21343;-83
2021/07/11 00:30:26;;;;;;;13.55;9.65;;;;;;;20.39;74.28;100305.02;1787682;79;20971;-84
2021/07/11 00:32:54;;;;;;;12.20;9.58;;;;;;;20.38;74.41;100298.81;1779950;80;21098;-84
2021/07/11 00:35:20;;;;;;;12.50;9.58;;;;;;;20.36;74.45;100304.84;1787121;78;21723;-84
2021/07/11 00:37:46;;;;;;;14.23;10.10;;;;;;;20.34;74.49;100302.88;1788745;78;22797;-83
2021/07/11 00:40:16;;;;;;;10.90;9.50;;;;;;;20.35;74.43;100306.38;1781826;78;20983;-82
2021/07/11 00:42:44;;;;;;;11.55;9.60;;;;;;;20.31;74.42;100303.25;1784437;79;21051;-82
2021/07/11 00:45:11;;;;;;;11.08;9.18;;;;;;;20.28;74.46;100295.08;1784244;80;20923;-83
2021/07/11 00:47:40;;;;;;;12.13;9.63;;;;;;;20.25;74.52;100295.94;1791515;80;20931;-82
2021/07/11 00:50:14;;;;;;;11.60;9.95;;;;;;;20.22;74.58;100300.34;1791352;80;22203;-82
2021/07/11 00:52:40;;;;;;;10.50;9.45;;;;;;;20.19;74.72;100298.05;1778786;79;20955;-82
2021/07/11 00:55:10;;;;;;;12.70;10.30;;;;;;;20.17;74.82;100302.73;1772405;79;20925;-84
2021/07/11 00:57:37;;;;;;;11.88;9.85;;;;;;;20.12;74.93;100299.29;1769802;80;20984;-84
2021/07/11 01:00:07;;;;;;;13.20;10.18;;;;;;;20.11;75.04;100294.12;1791360;78;20991;-83
2021/07/11 01:02:41;;;;;;;12.55;9.98;;;;;;;20.11;75.06;100296.80;1772080;80;21810;-82
2021/07/11 01:05:09;;;;;;;11.33;9.68;;;;;;;20.11;75.11;100292.77;1771397;79;20941;-84
2021/07/11 01:08:06;;;;;;;10.03;8.73;;;;;;;20.10;75.16;100288.44;1746928;80;20975;-84
2021/07/11 01:10:57;;;;;;;11.78;10.05;;;;;;;20.05;75.21;100290.31;1789728;78;21055;-83
2021/07/11 01:13:26;;;;;;;12.45;9.85;;;;;;;20.03;75.27;100292.36;1753463;80;21053;-84
2021/07/11 01:15:54;;;;;;;10.93;9.23;;;;;;;20.00;75.53;100288.71;1762365;80;21378;-84
2021/07/11 01:18:23;;;;;;;13.15;9.50;;;;;;;20.00;75.59;100288.20;1780094;79;21015;-84
2021/07/11 01:21:03;;;;;;;11.53;9.48;;;;;;;19.99;75.58;100291.91;1781121;79;21099;-83
2021/07/11 01:23:52;;;;;;;14.27;9.20;;;;;;;19.98;75.59;100284.87;1779097;80;20980;-84
2021/07/11 01:26:19;;;;;;;16.27;10.13;;;;;;;19.97;75.60;100285.87;1781948;80;21299;-83
2021/07/11 01:28:50;;;;;;;11.83;10.10;;;;;;;19.95;75.74;100281.72;1722521;81;22699;-83
2021/07/11 01:31:19;;;;;;;17.02;10.40;;;;;;;19.94;75.87;100286.25;1762943;80;21383;-83
2021/07/11 01:33:46;;;;;;;12.13;9.95;;;;;;;19.91;75.89;100287.97;1775500;80;21079;-83
2021/07/11 01:36:16;;;;;;;10.25;9.08;;;;;;;19.89;75.95;100290.52;1784169;79;21051;-83
2021/07/11 01:38:46;;;;;;;11.55;9.80;;;;;;;19.86;76.04;100283.66;1786636;79;21007;-84
2021/07/11 01:41:15;;;;;;;12.37;10.08;;;;;;;19.85;76.21;100281.16;1793692;79;21020;-83
2021/07/11 01:43:45;;;;;;;12.45;9.88;;;;;;;19.83;76.34;100282.69;1790017;80;21043;-83
2021/07/11 01:46:12;;;;;;;12.03;9.85;;;;;;;19.81;76.39;100286.58;1762318;80;21033;-83
2021/07/11 01:48:38;;;;;;;11.08;9.95;;;;;;;19.78;76.51;100282.91;1765675;79;21118;-83
2021/07/11 01:51:05;;;;;;;14.63;9.98;;;;;;;19.78;76.79;100281.56;1793638;80;21011;-83
2021/07/11 01:53:35;;;;;;;11.35;10.10;;;;;;;19.77;76.93;100282.08;1790414;80;21642;-83
2021/07/11 01:56:03;;;;;;;11.80;9.80;;;;;;;19.76;77.06;100284.94;1782731;79;21086;-82
2021/07/11 01:58:30;;;;;;;10.85;9.65;;;;;;;19.75;77.04;100285.96;1792845;79;20991;-83
2021/07/11 02:00:58;;;;;;;14.87;10.30;;;;;;;19.73;77.04;100286.15;1765532;80;21256;-84
2021/07/11 02:03:25;;;;;;;12.88;10.00;;;;;;;19.71;77.04;100291.70;1791669;80;20983;-84
2021/07/11 02:05:54;;;;;;;13.70;10.40;;;;;;;19.69;77.09;100289.72;1766246;79;21851;-85
2021/07/11 02:08:22;;;;;;;11.88;9.95;;;;;;;19.69;77.12;100288.37;1763566;79;21453;-84
2021/07/11 02:10:52;;;;;;;18.73;9.63;;;;;;;19.69;77.19;100295.07;1777911;79;20952;-84
2021/07/11 02:13:33;;;;;;;12.97;9.80;;;;;;;19.68;77.23;100289.88;1755821;80;20977;-85
2021/07/11 02:16:08;;;;;;;14.33;10.08;;;;;;;19.67;77.29;100293.06;1778054;79;21456;-85
2021/07/11 02:18:34;;;;;;;12.23;10.15;;;;;;;19.66;77.36;100297.27;1794222;79;21796;-85
2021/07/11 02:21:01;;;;;;;13.28;10.82;;;;;;;19.66;77.53;100298.61;1763124;80;21391;-84
2021/07/11 02:23:31;;;;;;;12.45;10.10;;;;;;;19.65;77.64;100296.94;1776280;79;20961;-85
2021/07/11 02:25:58;;;;;;;12.58;10.48;;;;;;;19.63;77.69;100297.64;1776200;79;21384;-85
2021/07/11 02:28:25;;;;;;;13.00;10.40;;;;;;;19.63;77.85;100300.32;1768979;80;21026;-85
2021/07/11 02:30:53;;;;;;;15.03;11.00;;;;;;;19.64;78.01;100299.30;1773152;80;22296;-85
2021/07/11 02:33:27;;;;;;;12.80;10.15;;;;;;;19.65;78.02;100301.80;1793821;80;20993;-85
2021/07/11 02:35:50;;;;;;;11.90;10.23;;;;;;;19.66;78.10;100302.63;1792102;80;21002;-84
2021/07/11 02:38:16;;;;;;;14.98;10.53;;;;;;;19.66;78.13;100303.97;1793576;79;21017;-84
2021/07/11 02:40:43;;;;;;;11.08;9.95;;;;;;;19.67;78.21;100300.27;1793824;79;21041;-84
2021/07/11 02:43:11;;;;;;;13.93;10.88;;;;;;;19.67;78.28;100299.76;1768982;80;22869;-84
2021/07/11 02:45:42;;;;;;;12.18;10.38;;;;;;;19.69;78.33;100303.62;1776541;80;20908;-85
2021/07/11 02:48:10;;;;;;;12.10;10.80;;;;;;;19.69;78.38;100304.96;1764955;80;20929;-85
2021/07/11 02:50:38;;;;;;;10.93;9.68;;;;;;;19.71;78.39;100307.78;1769779;80;21391;-85
2021/07/11 02:53:05;;;;;;;13.72;10.78;;;;;;;19.73;78.44;100298.20;1778547;79;20972;-85
2021/07/11 02:55:35;;;;;;;11.85;9.75;;;;;;;19.74;78.52;100309.25;1775349;80;22197;-85
2021/07/11 02:58:05;;;;;;;13.55;10.72;;;;;;;19.75;78.58;100306.89;1797129;78;20972;-83
2021/07/11 03:00:33;;;;;;;11.90;10.60;;;;;;;19.77;78.66;100304.02;1802171;78;21015;-83
2021/07/11 03:03:01;;;;;;;14.20;10.55;;;;;;;19.79;78.74;100302.02;1764930;80;20936;-83
2021/07/11 03:05:29;;;;;;;12.40;10.38;;;;;;;19.84;78.74;100299.61;1780986;79;20986;-84
2021/07/11 03:07:57;;;;;;;13.35;11.15;;;;;;;19.87;78.70;100296.03;1770667;79;22159;-84
2021/07/11 03:10:24;;;;;;;14.40;9.95;;;;;;;19.91;78.68;100301.37;1735343;81;21510;-84
2021/07/11 03:12:53;;;;;;;18.37;10.82;;;;;;;19.95;78.72;100295.95;1732889;81;21040;-84
2021/07/11 03:15:20;;;;;;;12.90;10.72;;;;;;;19.97;78.68;100304.64;1776833;80;20969;-84
2021/07/11 03:17:48;;;;;;;12.35;10.40;;;;;;;20.00;78.65;100298.09;1736434;81;21098;-84
2021/07/11 03:20:17;;;;;;;12.55;10.43;;;;;;;20.04;78.65;100301.23;1764966;80;21580;-84
2021/07/11 03:22:45;;;;;;;14.33;10.68;;;;;;;20.09;78.63;100301.52;1732001;82;21011;-84
2021/07/11 03:25:13;;;;;;;13.00;10.18;;;;;;;20.15;78.61;100300.76;1734030;81;21055;-84
2021/07/11 03:27:40;;;;;;;15.15;10.80;;;;;;;20.20;78.58;100303.73;1778470;80;20956;-84
2021/07/11 03:30:12;;;;;;;12.25;10.20;;;;;;;20.25;78.53;100302.14;1741148;81;21424;-85
2021/07/11 03:32:53;;;;;;;12.33;10.78;;;;;;;20.30;78.46;100298.91;1733841;81;21809;-84
2021/07/11 03:35:39;;;;;;;12.20;10.28;;;;;;;20.36;78.39;100292.78;1753834;81;21392;-84
2021/07/11 03:38:07;;;;;;;11.40;10.23;;;;;;;;;;1775011;80;20921;-84
2021/07/11 03:40:38;;;;;;;14.55;10.80;;;;;;;20.48;78.48;100292.67;1765405;80;21011;-84
2021/07/11 03:43:08;;;;;;;12.23;10.05;;;;;;;20.55;78.48;100297.59;1732859;81;21071;-84
2021/07/11 03:45:36;;;;;;;12.10;10.23;;;;;;;20.64;78.44;100298.82;1711950;82;21824;-83
2021/07/11 03:48:16;;;;;;;15.13;10.58;;;;;;;20.71;78.38;100299.73;1732253;82;21019;-84
2021/07/11 03:50:50;;;;;;;15.40;9.80;;;;;;;20.78;78.32;100297.45;1733249;81;21012;-84
2021/07/11 03:53:22;;;;;;;11.80;10.40;;;;;;;20.88;78.26;100293.12;1732591;82;21072;-84
2021/07/11 03:55:48;;;;;;;10.60;8.80;;;;;;;20.97;78.30;100293.32;1760935;80;20980;-84
2021/07/11 03:58:15;;;;;;;12.20;8.90;;;;;;;21.06;77.96;100288.66;1757695;81;21787;-82
2021/07/11 04:00:42;;;;;;;10.60;9.20;;;;;;;21.18;77.63;100289.80;1752424;81;21403;-85
2021/07/11 04:03:08;;;;;;;13.13;8.83;;;;;;;21.30;77.39;100287.45;1774316;80;21380;-82
2021/07/11 04:05:37;;;;;;;13.32;8.65;;;;;;;21.41;77.20;100282.88;1749438;81;21279;-80
2021/07/11 04:08:05;;;;;;;14.23;8.85;;;;;;;21.52;76.84;100284.20;1759506;81;20957;-78
2021/07/11 04:10:32;;;;;;;9.78;7.90;;;;;;;21.64;76.29;100281.32;1751366;80;21821;-80
2021/07/11 04:12:59;;;;;;;12.82;7.95;;;;;;;21.76;75.63;100277.56;1788632;80;20927;-77
2021/07/11 04:15:26;;;;;;;9.75;8.23;;;;;;;21.90;74.81;100280.64;1747742;81;21050;-76
2021/07/11 04:17:57;;;;;;;10.15;8.13;;;;;;;22.03;74.20;100280.73;1761008;80;21028;-78
2021/07/11 04:20:23;;;;;;;7.87;7.03;;;;;;;22.15;73.79;100281.86;1755739;81;21402;-82
2021/07/11 04:22:52;;;;;;;8.93;7.33;;;;;;;22.26;73.23;100281.80;1761017;80;22642;-76
2021/07/11 04:25:19;;;;;;;12.07;7.87;;;;;;;22.35;71.87;100278.43;1783384;80;20908;-81
2021/07/11 04:27:46;;;;;;;8.90;8.00;;;;;;;22.49;71.46;100284.20;1786732;80;20968;-80
2021/07/11 04:30:16;;;;;;;13.20;8.13;;;;;;;22.58;71.00;100277.57;1786354;80;21020;-81
2021/07/11 04:32:42;;;;;;;7.95;6.70;;;;;;;22.68;70.56;100274.01;1767448;80;21014;-81
2021/07/11 04:35:10;;;;;;;11.68;6.42;;;;;;;22.77;69.26;100276.80;1782419;80;22162;-80
2021/07/11 04:37:36;;;;;;;7.72;5.62;;;;;;;22.89;68.35;100277.61;1775923;80;20971;-81
2021/07/11 04:40:05;;;;;;;8.30;5.97;;;;;;;22.99;67.28;100281.56;1755596;81;21019;-82
2021/07/11 04:42:31;;;;;;;8.63;5.87;;;;;;;23.09;66.48;100279.29;1767985;80;21014;-82
2021/07/11 04:45:01;;;;;;;8.88;5.58;;;;;;;23.18;65.95;100275.88;1783590;80;20999;-82
2021/07/11 04:47:26;;;;;;;8.28;5.58;;;;;;;23.29;65.38;100278.47;1783303;79;22008;-81
2021/07/11 04:49:52;;;;;;;8.88;6.08;;;;;;;23.35;64.48;100273.06;1757713;80;21003;-80
2021/07/11 04:52:19;;;;;;;8.10;5.30;;;;;;;23.48;64.06;100280.86;1755522;81;20936;-80
2021/07/11 04:54:47;;;;;;;7.75;4.97;;;;;;;23.56;63.03;100274.73;1760383;80;20982;-81
2021/07/11 04:57:14;;;;;;;7.80;5.42;;;;;;;23.64;61.79;100277.75;1747162;80;21002;-81
2021/07/11 04:59:41;;;;;;;7.83;5.45;;;;;;;23.71;61.41;100275.88;1761084;79;21823;-80
2021/07/11 05:02:08;;;;;;;10.95;5.70;;;;;;;23.79;61.43;100274.31;1761954;80;20999;-81
2021/07/11 05:04:35;;;;;;;11.75;5.80;;;;;;;23.88;61.65;100271.70;1779789;80;21479;-79
2021/07/11 05:07:03;;;;;;;9.43;5.60;;;;;;;23.96;61.22;100275.53;1774047;80;21430;-81
2021/07/11 05:09:31;;;;;;;7.58;5.70;;;;;;;24.02;61.03;100273.00;1793658;79;20920;-80
2021/07/11 05:11:58;;;;;;;7.30;5.15;;;;;;;24.06;60.80;100272.39;1796030;79;21780;-80
2021/07/11 05:14:24;;;;;;;7.08;5.22;;;;;;;24.12;59.78;100272.87;1782867;80;20956;-80
2021/07/11 05:16:52;;;;;;;7.65;5.75;;;;;;;24.19;58.98;100275.55;1776664;79;21565;-80
2021/07/11 05:19:20;;;;;;;7.08;5.80;;;;;;;24.26;59.17;100266.91;1790519;79;20956;-80
2021/07/11 05:21:47;;;;;;;9.05;5.83;;;;;;;24.35;59.32;100272.41;1764817;80;20995;-80
2021/07/11 05:24:13;;;;;;;9.45;5.40;;;;;;;24.39;59.03;100274.16;1780799;79;21800;-79
2021/07/11 05:26:40;;;;;;;9.08;5.33;;;;;;;24.41;58.92;100279.64;1793292;79;20937;-80
2021/07/11 05:29:06;;;;;;;7.12;5.90;;;;;;;24.44;58.93;100283.80;1760776;81;21055;-81
2021/07/11 05:31:34;;;;;;;15.03;6.22;;;;;;;24.49;59.42;100283.45;1780904;79;21359;-80
2021/07/11 05:34:00;;;;;;;8.48;6.12;;;;;;;24.58;59.54;100278.63;1778728;80;20931;-80
2021/07/11 05:36:27;;;;;;;10.45;5.50;;;;;;;24.64;59.34;100284.53;1760329;80;21788;-80
2021/07/11 05:38:54;;;;;;;9.83;5.83;;;;;;;24.68;58.46;100284.39;1789438;79;21047;-80
2021/07/11 05:41:21;;;;;;;7.72;5.05;;;;;;;24.70;58.33;100285.52;1787551;79;20936;-80
2021/07/11 05:43:47;;;;;;;6.05;5.00;;;;;;;24.72;57.66;100281.59;1774702;80;21332;-82
2021/07/11 05:46:14;;;;;;;10.18;4.67;;;;;;;24.76;56.94;100284.15;1773508;79;21023;-82
2021/07/11 05:48:41;;;;;;;5.17;4.55;;;;;;;24.79;56.97;100286.93;1789941;79;22183;-81
2021/07/11 05:51:07;;;;;;;8.73;4.50;;;;;;;24.83;56.57;100282.23;1790191;79;20976;-80
2021/07/11 05:53:35;;;;;;;7.05;5.12;;;;;;;24.91;56.62;100284.39;1777096;79;21387;-80
2021/07/11 05:56:02;;;;;;;7.90;4.92;;;;;;;24.95;56.13;100279.67;1762797;79;20940;-80
2021/07/11 05:58:29;;;;;;;5.70;4.75;;;;;;;25.01;56.52;100282.03;1774959;79;21395;-79
2021/07/11 06:00:55;;;;;;;7.85;5.05;;;;;;;25.05;56.34;100281.39;1775169;79;22486;-81
2021/07/11 06:03:22;;;;;;;8.83;5.03;;;;;;;25.11;56.17;100285.94;1784804;79;21019;-83
2021/07/11 06:05:51;;;;;;;10.90;5.33;;;;;;;25.14;56.41;100283.31;1781660;79;21426;-83
2021/07/11 06:08:17;;;;;;;6.28;4.97;;;;;;;25.18;56.41;100287.74;1763825;79;21454;-82
2021/07/11 06:10:43;;;;;;;12.03;5.40;;;;;;;25.21;56.04;100288.68;1761701;79;21022;-82
2021/07/11 06:13:12;;;;;;;6.37;4.92;;;;;;;25.25;56.37;100287.18;1780405;78;21101;-82
2021/07/11 06:15:38;;;;;;;5.85;4.75;;;;;;;25.31;55.07;100286.31;1782022;79;21003;-79
2021/07/11 06:18:05;;;;;;;6.92;4.67;;;;;;;25.38;54.47;100283.00;1770041;80;21051;-82
2021/07/11 06:20:34;;;;;;;7.47;5.00;;;;;;;25.44;54.43;100280.78;1761609;81;21019;-84
2021/07/11 06:22:59;;;;;;;8.23;5.08;;;;;;;25.52;54.47;100275.63;1783795;80;21062;-77
2021/07/11 06:25:26;;;;;;;5.90;4.62;;;;;;;25.60;54.06;100272.11;1775249;78;22190;-79
2021/07/11 06:27:52;;;;;;;7.50;5.08;;;;;;;25.62;53.58;100273.23;1777460;79;21050;-81
2021/07/11 06:30:19;;;;;;;7.90;5.12;;;;;;;25.65;53.67;100274.96;1774096;78;21015;-85
2021/07/11 06:32:47;;;;;;;7.47;4.90;;;;;;;25.74;54.11;100273.36;1794311;78;21494;-85
2021/07/11 06:35:37;;;;;;;7.62;5.05;;;;;;;25.84;53.59;100273.14;1790405;78;21004;-84
2021/07/11 06:38:04;;;;;;;6.78;4.85;;;;;;;25.95;53.23;100267.51;1753142;78;21868;-84
2021/07/11 06:40:31;;;;;;;7.47;4.90;;;;;;;26.06;53.10;100267.31;1793130;78;21060;-76
2021/07/11 06:42:58;;;;;;;9.18;4.78;;;;;;;26.14;52.74;100271.88;1788916;79;21158;-83
2021/07/11 06:45:24;;;;;;;8.98;4.95;;;;;;;26.26;52.95;100270.61;1781503;78;20963;-82
2021/07/11 06:47:51;;;;;;;10.70;4.80;;;;;;;26.41;52.18;100275.65;1775935;78;21126;-82
2021/07/11 06:50:17;;;;;;;9.78;5.20;;;;;;;26.46;51.13;100270.39;1775422;78;21816;-80
2021/07/11 06:52:44;;;;;;;9.38;4.80;;;;;;;26.49;50.94;100276.16;1764993;79;21063;-85
2021/07/11 06:55:13;;;;;;;7.60;4.80;;;;;;;26.56;50.29;100273.38;1774905;78;21059;-79
2021/07/11 06:57:40;;;;;;;6.65;4.62;;;;;;;26.61;49.65;100268.61;1779866;78;21362;-80
2021/07/11 07:00:08;;;;;;;8.98;4.62;;;;;;;26.68;50.52;100263.94;1781173;79;21347;-80
2021/07/11 07:02:35;;;;;;;4.87;4.37;;;;;;;26.77;50.28;100267.45;1772311;78;22749;-80
2021/07/11 07:05:02;;;;;;;6.60;4.22;;;;;;;26.89;50.45;100268.83;1775428;78;21102;-79
2021/07/11 07:07:29;;;;;;;5.58;4.72;;;;;;;26.95;50.30;100271.16;1762011;78;20995;-78
2021/07/11 07:09:58;;;;;;;9.60;4.90;;;;;;;27.01;49.92;100275.11;1764235;80;21425;-85
2021/07/11 07:12:24;;;;;;;11.38;4.58;;;;;;;27.10;50.01;100270.20;1780488;78;20999;-84
2021/07/11 07:14:51;;;;;;;5.67;4.17;;;;;;;27.19;49.60;100271.52;1784527;78;21872;-84
2021/07/11 07:17:17;;;;;;;6.00;4.53;;;;;;;27.27;49.57;100267.65;1767750;78;21031;-87
2021/07/11 07:19:44;;;;;;;6.15;4.28;;;;;;;27.41;49.69;100270.95;1768364;78;21066;-82
2021/07/11 07:22:10;;;;;;;5.53;4.50;;;;;;;27.51;49.05;100263.91;1769141;78;21051;-84
2021/07/11 07:24:37;;;;;;;5.80;4.37;;;;;;;27.57;48.75;100272.45;1780007;78;21000;-84
2021/07/11 07:27:04;;;;;;;6.75;4.40;;;;;;;27.64;48.75;100273.16;1776103;79;21786;-86
2021/07/11 07:29:30;;;;;;;8.40;4.15;;;;;;;27.73;48.29;100274.20;1768033;79;21082;-79
2021/07/11 07:31:57;;;;;;;9.50;4.40;;;;;;;27.84;49.14;100276.08;1761063;80;21575;-81
2021/07/11 07:34:23;;;;;;;5.25;4.17;;;;;;;27.98;49.02;100272.03;1753749;80;21501;-84
2021/07/11 07:36:49;;;;;;;7.37;4.15;;;;;;;28.12;48.87;100262.58;1748744;81;21118;-78
2021/07/11 07:39:16;;;;;;;7.45;3.98;;;;;;;28.19;47.94;100259.73;1778804;79;22237;-85
2021/07/11 07:41:43;;;;;;;12.50;4.00;;;;;;;28.23;47.25;100257.64;1780663;78;21019;-80
2021/07/11 07:44:09;;;;;;;8.13;4.35;;;;;;;28.26;46.36;100259.05;1797313;78;21177;-82
2021/07/11 07:46:36;;;;;;;6.75;4.10;;;;;;;28.26;47.10;100257.69;1734356;80;21062;-82
2021/07/11 07:49:03;;;;;;;9.03;4.30;;;;;;;28.36;47.42;100264.71;1755707;80;21036;-78
2021/07/11 07:51:30;;;;;;;5.97;4.05;;;;;;;28.48;47.29;100259.27;1779040;80;21764;-86
2021/07/11 07:53:57;;;;;;;7.33;3.95;;;;;;;28.50;47.47;100260.66;1775779;79;21034;-82
2021/07/11 07:56:23;;;;;;;8.83;4.67;;;;;;;28.56;48.18;100258.02;1774231;78;21404;-79
2021/07/11 07:58:50;;;;;;;7.28;4.58;;;;;;;28.72;47.98;100257.25;1779389;79;21446;-81
2021/07/11 08:01:16;;;;;;;5.40;3.62;;;;;;;28.84;47.79;100259.36;1791054;78;21624;-84
2021/07/11 08:03:44;;;;;;;4.97;3.83;;;;;;;28.97;46.65;100256.92;1785655;78;20963;-78
2021/07/11 08:06:11;;;;;;;10.53;4.30;;;;;;;29.01;47.27;100253.45;1764938;80;20921;-80
2021/07/11 08:08:37;;;;;;;5.87;4.22;;;;;;;29.13;47.29;100256.09;1791649;78;20999;-78
2021/07/11 08:11:07;;;;;;;5.83;4.10;;;;;;;29.23;46.38;100253.53;1784938;79;20944;-81
2021/07/11 08:13:36;;;;;;;6.40;4.08;;;;;;;29.32;45.94;100257.49;1763855;79;21504;-74
2021/07/11 08:16:04;;;;;;;6.35;4.28;;;;;;;29.39;45.88;100250.53;1771445;79;21781;-74
2021/07/11 08:18:32;;;;;;;4.97;4.25;;;;;;;29.46;45.73;100252.55;1777907;78;20928;-78
2021/07/11 08:20:59;;;;;;;7.72;3.85;;;;;;;29.48;45.20;100251.80;1781721;78;20999;-80
2021/07/11 08:23:25;;;;;;;9.33;4.00;;;;;;;29.53;45.71;100253.75;1796239;78;20968;-77
2021/07/11 08:25:52;;;;;;;6.97;4.08;;;;;;;29.65;45.48;100254.50;1774948;79;21060;-81
2021/07/11 08:28:19;;;;;;;6.12;4.10;;;;;;;29.78;45.01;100254.13;1791206;78;22381;-80
2021/07/11 08:30:45;;;;;;;7.33;3.80;;;;;;;29.84;43.98;100246.87;1762838;78;20963;-81
2021/07/11 08:33:12;;;;;;;5.35;4.05;;;;;;;29.87;45.01;100253.16;1793146;78;20941;-82
2021/07/11 08:35:38;;;;;;;9.60;4.55;;;;;;;29.99;42.99;100246.23;1772341;80;21067;-84
2021/07/11 08:38:05;;;;;;;5.78;3.90;;;;;;;30.01;43.85;100246.26;1779436;80;21405;-82
2021/07/11 08:40:33;;;;;;;5.75;4.10;;;;;;;30.04;43.54;100245.77;1777748;79;22803;-81
2021/07/11 08:43:01;;;;;;;4.65;3.58;;;;;;;30.05;42.73;100250.14;1773909;79;21041;-83
2021/07/11 08:45:28;;;;;;;7.30;3.67;;;;;;;30.08;42.41;100240.66;1773991;78;20979;-77
2021/07/11 08:47:54;;;;;;;6.58;3.40;;;;;;;30.17;42.88;100245.41;1765979;80;21560;-74
2021/07/11 08:50:23;;;;;;;5.60;3.80;;;;;;;30.44;42.03;100244.64;1776183;78;21059;-81
2021/07/11 08:52:49;;;;;;;6.72;3.37;;;;;;;30.44;42.03;100244.64;1793319;80;21442;-79
2021/07/11 08:55:20;;;;;;;7.58;3.55;;;;;;;30.64;41.36;100246.24;1793433;80;21019;-81
2021/07/11 08:57:53;;;;;;;8.28;3.60;;;;;;;30.73;40.84;100244.70;1792249;80;20968;-81
2021/07/11 09:00:25;;;;;;;5.72;3.75;;;;;;;30.84;41.02;100240.16;1776479;80;21493;-80
2021/07/11 09:02:52;;;;;;;8.13;3.80;;;;;;;30.95;40.27;100246.53;1784938;80;21083;-76
2021/07/11 09:05:27;;;;;;;6.87;3.47;;;;;;;31.05;40.12;100239.80;1765257;79;21728;-75
2021/07/11 09:08:05;;;;;;;10.65;3.67;;;;;;;31.17;39.15;100241.80;1762026;80;21015;-77
2021/07/11 09:10:40;;;;;;;7.90;3.60;;;;;;;31.29;40.08;100237.58;1788758;78;21080;-76
2021/07/11 09:13:17;;;;;;;3.80;3.20;;;;;;;31.42;40.23;100241.75;1766322;80;20959;-74
2021/07/11 09:15:50;;;;;;;5.03;3.10;;;;;;;31.50;39.16;100235.27;1759290;81;21003;-85
2021/07/11 09:18:25;;;;;;;5.92;3.50;;;;;;;31.60;37.54;100228.50;1781910;80;22401;-82
2021/07/11 09:21:00;;;;;;;6.45;3.33;;;;;;;31.65;37.19;100223.59;1782491;79;20942;-81
2021/07/11 09:23:29;;;;;;;6.37;3.67;;;;;;;31.67;38.56;100224.72;1769590;80;21447;-81
2021/07/11 09:26:10;;;;;;;7.58;3.62;;;;;;;31.73;37.14;100227.19;1768605;80;20980;-78
2021/07/11 09:28:46;;;;;;;5.05;3.30;;;;;;;31.77;37.51;100228.36;1773981;78;21132;-82
2021/07/11 09:31:18;;;;;;;4.72;3.47;;;;;;;31.91;37.59;100223.22;1776839;80;22182;-80
2021/07/11 09:33:54;;;;;;;9.18;3.62;;;;;;;32.07;36.45;100217.29;1759179;81;20899;-81
2021/07/11 09:36:22;;;;;;;5.12;3.25;;;;;;;32.19;36.69;100218.69;1750682;80;21372;-82
2021/07/11 09:38:55;;;;;;;5.47;3.02;;;;;;;32.31;35.74;100220.39;1786286;78;20928;-80
2021/07/11 09:41:29;;;;;;;5.58;3.37;;;;;;;32.40;35.77;100216.86;1773500;79;21336;-87
2021/07/11 09:43:58;;;;;;;4.28;3.40;;;;;;;32.55;34.65;100211.98;1780366;78;22474;-77
2021/07/11 09:46:26;;;;;;;6.03;3.75;;;;;;;32.62;34.53;100212.55;1747782;80;20959;-82
2021/07/11 09:48:53;;;;;;;6.00;3.40;;;;;;;32.56;34.18;100210.89;1783298;78;21392;-83
2021/07/11 09:51:27;;;;;;;8.33;3.70;;;;;;;32.58;34.76;100207.33;1779033;78;21372;-81
2021/07/11 09:53:55;;;;;;;7.70;3.20;;;;;;;32.70;35.05;100209.25;1772299;78;21023;-86
2021/07/11 09:56:40;;;;;;;8.60;3.50;;;;;;;32.83;34.28;100207.09;1791176;79;22183;-82
2021/07/11 09:59:10;;;;;;;5.28;3.50;;;;;;;32.88;34.56;100212.58;1779624;78;21010;-85
2021/07/11 10:01:42;;;;;;;9.48;3.37;;;;;;;32.99;34.12;100209.56;1786160;80;20956;-76
2021/07/11 10:04:09;;;;;;;5.95;3.25;;;;;;;33.14;33.82;100212.04;1780537;80;20963;-79
2021/07/11 10:06:39;;;;;;;4.83;3.33;;;;;;;33.19;33.52;100207.36;1791077;78;21417;-79
2021/07/11 10:09:08;;;;;;;5.67;3.37;;;;;;;33.24;32.72;100204.63;1796712;78;21836;-81
2021/07/11 10:11:37;;;;;;;4.60;3.27;;;;;;;33.27;33.39;100210.09;1779663;80;20956;-77
2021/07/11 10:14:04;;;;;;;7.10;3.40;;;;;;;33.41;33.93;100207.11;1782287;80;21463;-79
2021/07/11 10:16:31;;;;;;;5.75;3.52;;;;;;;33.61;33.26;100204.87;1730148;81;21527;-79
2021/07/11 10:19:00;;;;;;;6.67;4.28;;;;;;;33.76;33.53;100205.35;1776419;80;20941;-77
2021/07/11 10:21:32;;;;;;;6.47;4.03;;;;;;;33.77;32.99;100211.09;1743544;81;21841;-79
2021/07/11 10:24:01;;;;;;;8.25;3.52;;;;;;;33.78;32.60;100208.62;1760130;81;20954;-78
2021/07/11 10:26:39;;;;;;;7.92;3.47;;;;;;;33.90;32.76;100210.55;1776935;80;21012;-82
2021/07/11 10:29:15;;;;;;;6.47;3.30;;;;;;;33.98;31.25;100200.38;1768451;80;21000;-80
2021/07/11 10:31:44;;;;;;;5.12;3.62;;;;;;;33.84;30.76;100210.26;1770119;80;20936;-79
2021/07/11 10:34:11;;;;;;;5.22;3.62;;;;;;;33.75;31.29;100205.09;1748380;82;21774;-80
2021/07/11 10:36:42;;;;;;;5.40;3.75;;;;;;;33.64;31.29;100207.04;1709168;82;21412;-79
2021/07/11 10:39:10;;;;;;;4.95;3.50;;;;;;;33.68;32.30;100212.22;1762884;80;20932;-79
2021/07/11 10:41:48;;;;;;;6.83;3.98;;;;;;;33.77;32.38;100205.06;1747744;82;21462;-80
2021/07/11 10:44:22;;;;;;;9.63;4.15;;;;;;;33.96;32.19;100207.22;1739548;80;20980;-79
2021/07/11 10:47:02;;;;;;;5.97;4.17;;;;;;;34.16;32.34;100205.75;1776922;80;21803;-81
2021/07/11 10:49:35;;;;;;;4.80;3.72;;;;;;;34.31;30.63;100205.68;1778096;80;21380;-83
2021/07/11 10:52:06;;;;;;;6.40;3.37;;;;;;;34.24;29.53;100194.75;1749059;82;21529;-78
2021/07/11 10:54:50;;;;;;;5.08;3.58;;;;;;;34.23;30.70;100199.97;1747519;82;20932;-79
2021/07/11 10:57:33;;;;;;;6.47;3.85;;;;;;;34.46;31.87;100210.30;1756419;79;21023;-78
2021/07/11 11:00:18;;;;;;;7.83;3.92;;;;;;;34.73;31.33;100207.89;1773227;80;20956;-74
2021/07/11 11:02:50;;;;;;;6.08;4.00;;;;;;;34.93;30.24;100208.86;1769987;80;20977;-73
2021/07/11 11:05:23;;;;;;;5.67;3.70;;;;;;;35.10;30.51;100201.03;1751271;80;21028;-71
2021/07/11 11:07:53;;;;;;;7.72;3.77;;;;;;;35.32;30.71;100203.84;1777889;80;20953;-72
2021/07/11 11:10:34;;;;;;;5.87;3.90;;;;;;;35.49;29.62;100206.98;1778787;80;20913;-74
2021/07/11 11:13:21;;;;;;;4.50;3.87;;;;;;;35.56;29.48;100201.41;1737815;81;21102;-73
2021/07/11 11:15:57;;;;;;;10.35;3.95;;;;;;;35.71;30.51;100203.19;1768449;80;21411;-71
2021/07/11 11:18:35;;;;;;;4.58;3.92;;;;;;;35.87;30.48;100207.11;1748665;81;21062;-72
2021/07/11 11:21:04;;;;;;;5.37;3.90;;;;;;;36.10;29.45;100201.62;1755566;81;20948;-74
2021/07/11 11:23:44;;;;;;;6.03;3.67;;;;;;;36.23;28.45;100201.99;1761118;80;21050;-74
2021/07/11 11:26:18;;;;;;;6.95;3.80;;;;;;;36.32;28.40;100200.22;1769537;80;21821;-75
2021/07/11 11:28:45;;;;;;;4.70;3.62;;;;;;;36.23;28.45;100197.87;1762059;80;21004;-75
2021/07/11 11:31:21;;;;;;;6.75;4.20;;;;;;;36.31;29.35;100194.45;1785619;80;20980;-75